Fukushima Airport
RJSF : rendu visible

Aérodrome :











RETROUVEZ-NOUS SUR...

 
LOGIN :

S'inscrire | Disclaimer

   EN    FR    IT 

 









Légende :    VFR   VFR Marginal   IFR   IFR Intensif   IFR Très Intensif
Visi : 
Plafond : 
>= 8 km
>= 3000ft
5 à 8 km
1000 à 3000 ft
1500m à 5 km
500 à 1000 ft
800 à 1500m
200 à 500 ft
< 800m
< 200 ft
Symboles :   Orages  Brouillard  Fortes neiges  Fortes précipitations  Vent > 20 kt






- Altitude de l'aérodrome : 1221 ft
- Code IATA : FKS


RJSF - Fukushima

DERNIER METAR :
  • 150400Z 32012KT 260V350 9999 FEW030 BKN040 BKN/// 05/M05 Q1025

METARs EXPIRÉS :
  • 150300Z 32012KT 280V010 9999 FEW030 SCT040 BKN/// 04/M06 Q1025
  • 150200Z 32011KT 280V350 9999 FEW030 SCT040 BKN/// 05/M05 Q1025

TAF TAF RJSF
Valide du 15 à 00h jusqu'au 16 à 06h UTC


142305Z 1500/1606 32015KT 9999 FEW020 SCT040
TEMPO 1500/1506 32020G30KT
BECMG 1518/1521 23004KT



MET'MAP, la Météo Aéronautique d'un coup d'oeil ! - Copyright ORBIFLY Décembre 2007 - Disclaimer

ORBIFLY MET'MAP TEAM :

Programmation & Développement : Alexandra Zaïnal
Sur une idée originale de : Baudouin d'Aumeries
Assistance à la programmation : Marc-Olivier Méhu
Soutien technique & logistique : Manuel Goepfert

Contact : metmap@orbifly.com




SOURCES & CREDITS :

   NOAA       Earth
Advisory